Time;durP1;ratioP1;P1;durP2;ratioP2;P2;SDS_P1;SDS_P2;PMS_P1;PMS_P2;Temp;Humidity;BMP_temperature;BMP_pressure;BME280_temperature;BME280_humidity;BME280_pressure;Samples;Min_cycle;Max_cycle;Signal;HPM_P1;HPM_P2
2023/07/07 00:00:01;;;;;;;9.67;6.10;;;;;;;;;;6256963;28;20268;-74
2023/07/07 00:03:02;;;;;;;8.57;6.23;;;;;;;;;;6257841;28;20183;-73
2023/07/07 00:06:03;;;;;;;11.23;5.80;;;;;;;;;;6265858;28;20186;-74
2023/07/07 00:09:05;;;;;;;7.23;6.13;;;;;;;;;;6261459;28;20197;-73
2023/07/07 00:12:06;;;;;;;9.90;6.27;;;;;;;;;;6255450;28;20198;-73
2023/07/07 00:15:07;;;;;;;9.57;6.47;;;;;;;;;;6247739;28;20195;-73
2023/07/07 00:18:09;;;;;;;9.30;6.33;;;;;;;;;;6267295;28;20242;-73
2023/07/07 00:21:10;;;;;;;9.80;6.30;;;;;;;;;;6245232;28;20190;-73
2023/07/07 00:24:11;;;;;;;8.83;5.87;;;;;;;;;;6236836;28;20205;-73
2023/07/07 00:27:12;;;;;;;9.23;5.90;;;;;;;;;;6252781;28;20221;-74
2023/07/07 00:30:13;;;;;;;7.60;6.13;;;;;;;;;;6252980;28;20243;-74
2023/07/07 00:33:14;;;;;;;6.80;6.10;;;;;;;;;;6255557;28;20194;-73
2023/07/07 00:36:15;;;;;;;9.00;6.03;;;;;;;;;;6257379;28;20192;-72
2023/07/07 00:39:16;;;;;;;6.77;6.00;;;;;;;;;;6251501;28;20222;-74
2023/07/07 00:42:17;;;;;;;7.63;6.40;;;;;;;;;;6249985;28;20284;-74
2023/07/07 00:45:20;;;;;;;8.80;6.90;;;;;;;;;;6252081;28;20226;-74
2023/07/07 00:48:32;;;;;;;7.47;6.77;;;;;;;;;;6265712;28;20264;-73
2023/07/07 00:51:34;;;;;;;7.07;6.37;;;;;;;;;;6269105;28;20341;-73
2023/07/07 00:54:36;;;;;;;10.53;6.37;;;;;;;;;;6261590;28;20645;-73
2023/07/07 00:57:37;;;;;;;8.90;6.77;;;;;;;;;;6273099;28;20200;-74
2023/07/07 01:00:38;;;;;;;9.27;6.37;;;;;;;;;;6255311;28;20217;-73
2023/07/07 01:03:42;;;;;;;11.50;6.87;;;;;;;;;;6258524;28;20190;-73
2023/07/07 01:06:47;;;;;;;10.10;7.23;;;;;;;;;;6262900;28;20195;-73
2023/07/07 01:09:48;;;;;;;7.03;6.17;;;;;;;;;;6258489;28;20191;-74
2023/07/07 01:12:50;;;;;;;9.20;7.17;;;;;;;;;;6251127;28;20194;-74
2023/07/07 01:15:54;;;;;;;7.87;6.97;;;;;;;;;;6259240;28;20185;-74
2023/07/07 01:18:55;;;;;;;6.73;6.13;;;;;;;;;;6257945;28;20280;-74
2023/07/07 01:21:59;;;;;;;7.27;6.47;;;;;;;;;;6257934;28;20198;-73
2023/07/07 01:25:07;;;;;;;8.83;7.13;;;;;;;;;;6263409;28;20197;-73
2023/07/07 01:28:20;;;;;;;13.20;7.30;;;;;;;;;;6260822;28;20284;-73
2023/07/07 01:31:28;;;;;;;11.97;6.73;;;;;;;;;;6254841;28;20216;-73
2023/07/07 01:34:29;;;;;;;9.80;6.97;;;;;;;;;;6274996;28;20190;-73
2023/07/07 01:37:30;;;;;;;10.63;7.63;;;;;;;;;;6272297;28;20190;-74
2023/07/07 01:40:31;;;;;;;7.87;7.07;;;;;;;;;;6269152;28;20496;-74
2023/07/07 01:43:37;;;;;;;9.33;6.60;;;;;;;;;;6250123;28;20209;-73
2023/07/07 01:47:07;;;;;;;9.33;7.37;;;;;;;;;;6266343;28;20190;-73
2023/07/07 01:50:15;;;;;;;10.33;6.40;;;;;;;;;;6264684;28;20199;-73
2023/07/07 01:53:26;;;;;;;8.33;6.90;;;;;;;;;;6261372;28;20199;-73
2023/07/07 01:56:30;;;;;;;9.77;7.67;;;;;;;;;;6272564;28;20247;-73
2023/07/07 01:59:32;;;;;;;8.60;6.67;;;;;;;;;;6255827;28;20223;-73
2023/07/07 02:02:33;;;;;;;9.53;7.50;;;;;;;;;;6250127;28;20199;-74
2023/07/07 02:05:34;;;;;;;16.03;7.50;;;;;;;;;;6258343;28;20189;-74
2023/07/07 02:08:35;;;;;;;13.43;6.97;;;;;;;;;;6257636;28;20201;-73
2023/07/07 02:11:36;;;;;;;8.23;6.83;;;;;;;;;;6248829;28;20206;-73
2023/07/07 02:14:37;;;;;;;8.57;7.37;;;;;;;;;;6247144;28;20204;-74
2023/07/07 02:17:38;;;;;;;8.53;7.40;;;;;;;;;;6257880;28;20248;-73
2023/07/07 02:20:39;;;;;;;10.43;7.20;;;;;;;;;;6247274;28;20226;-73
2023/07/07 02:23:40;;;;;;;9.07;7.23;;;;;;;;;;6259993;28;20187;-73
2023/07/07 02:26:41;;;;;;;9.63;7.40;;;;;;;;;;6251800;28;20186;-73
2023/07/07 02:29:42;;;;;;;12.03;7.50;;;;;;;;;;6251384;28;20202;-73
2023/07/07 02:32:43;;;;;;;11.20;7.63;;;;;;;;;;6254857;28;20251;-73
2023/07/07 02:35:48;;;;;;;9.53;7.70;;;;;;;;;;6251388;28;20208;-73
2023/07/07 02:38:49;;;;;;;7.83;7.00;;;;;;;;;;6257123;28;20222;-73
2023/07/07 02:41:50;;;;;;;12.63;8.30;;;;;;;;;;6246065;28;20221;-73
2023/07/07 02:44:51;;;;;;;9.13;7.90;;;;;;;;;;6248857;28;20197;-75
2023/07/07 02:47:52;;;;;;;11.83;7.33;;;;;;;;;;6249997;28;20190;-75
2023/07/07 02:50:58;;;;;;;9.73;7.83;;;;;;;;;;6247461;28;20193;-74
2023/07/07 02:53:59;;;;;;;8.00;6.57;;;;;;;;;;6263106;28;20187;-74
2023/07/07 02:57:00;;;;;;;9.47;7.80;;;;;;;;;;6244822;28;20186;-74
2023/07/07 03:00:04;;;;;;;9.63;7.40;;;;;;;;;;6256184;28;20213;-74
2023/07/07 03:03:07;;;;;;;9.53;8.03;;;;;;;;;;6247425;28;20194;-73
2023/07/07 03:06:10;;;;;;;10.50;7.83;;;;;;;;;;6254179;28;20218;-73
2023/07/07 03:09:11;;;;;;;8.13;7.10;;;;;;;;;;6256484;28;20195;-73
2023/07/07 03:12:12;;;;;;;9.33;7.53;;;;;;;;;;6254513;28;20213;-74
2023/07/07 03:15:13;;;;;;;8.40;7.57;;;;;;;;;;6251508;28;20201;-74
2023/07/07 03:18:14;;;;;;;11.23;7.73;;;;;;;;;;6249193;28;20249;-74
2023/07/07 03:21:19;;;;;;;9.80;7.97;;;;;;;;;;6257435;28;20183;-73
2023/07/07 03:24:20;;;;;;;9.73;8.57;;;;;;;;;;6263220;28;20219;-74
2023/07/07 03:27:21;;;;;;;8.57;7.77;;;;;;;;;;6261916;28;20182;-74
2023/07/07 03:30:23;;;;;;;9.80;7.87;;;;;;;;;;6247802;28;20201;-74
2023/07/07 03:33:24;;;;;;;10.27;7.40;;;;;;;;;;6254142;28;20190;-74
2023/07/07 03:36:26;;;;;;;9.57;6.87;;;;;;;;;;6255135;28;20212;-74
2023/07/07 03:39:27;;;;;;;7.67;6.97;;;;;;;;;;6255431;28;20218;-74
2023/07/07 03:42:29;;;;;;;10.83;8.20;;;;;;;;;;6255120;28;20193;-74
2023/07/07 03:45:32;;;;;;;9.63;7.83;;;;;;;;;;6271362;28;20190;-73
2023/07/07 03:48:33;;;;;;;9.07;7.53;;;;;;;;;;6269000;28;20194;-73
2023/07/07 03:51:35;;;;;;;8.57;7.70;;;;;;;;;;6248250;28;20260;-73
2023/07/07 03:54:36;;;;;;;7.90;7.20;;;;;;;;;;6247476;28;20199;-73
2023/07/07 03:57:38;;;;;;;8.50;7.33;;;;;;;;;;6238845;28;20198;-73
2023/07/07 04:00:39;;;;;;;8.43;7.30;;;;;;;;;;6243604;28;20309;-73
2023/07/07 04:03:40;;;;;;;9.00;8.20;;;;;;;;;;6259933;28;20193;-73
2023/07/07 04:06:41;;;;;;;8.87;7.30;;;;;;;;;;6255314;28;20202;-73
2023/07/07 04:09:42;;;;;;;9.60;7.53;;;;;;;;;;6261650;28;20194;-73
2023/07/07 04:12:44;;;;;;;8.23;7.33;;;;;;;;;;6246942;28;20197;-73
2023/07/07 04:15:56;;;;;;;8.13;7.33;;;;;;;;;;6253365;28;20228;-74
2023/07/07 04:18:57;;;;;;;9.23;7.20;;;;;;;;;;6264874;28;20330;-73
2023/07/07 04:21:58;;;;;;;7.50;6.80;;;;;;;;;;6254302;28;20190;-72
2023/07/07 04:25:10;;;;;;;9.87;8.47;;;;;;;;;;6259445;28;20185;-72
2023/07/07 04:28:11;;;;;;;10.90;9.20;;;;;;;;;;6272968;28;20204;-70
2023/07/07 04:31:13;;;;;;;13.63;8.63;;;;;;;;;;6266171;28;20222;-70
2023/07/07 04:34:15;;;;;;;13.50;9.10;;;;;;;;;;6259755;28;20193;-70
2023/07/07 04:37:16;;;;;;;10.60;8.60;;;;;;;;;;6258572;28;20214;-70
2023/07/07 04:40:17;;;;;;;9.30;8.30;;;;;;;;;;6257424;28;20210;-70
2023/07/07 04:43:18;;;;;;;8.37;7.53;;;;;;;;;;6261268;28;20240;-70
2023/07/07 04:46:24;;;;;;;10.70;7.77;;;;;;;;;;6244827;28;20214;-70
2023/07/07 04:49:25;;;;;;;9.77;8.00;;;;;;;;;;6265697;28;20210;-70
2023/07/07 04:52:26;;;;;;;8.83;8.03;;;;;;;;;;6238627;28;20199;-70
2023/07/07 04:55:27;;;;;;;12.50;8.77;;;;;;;;;;6257775;28;20340;-70
2023/07/07 04:58:29;;;;;;;9.60;8.23;;;;;;;;;;6269554;28;20216;-70
2023/07/07 05:01:30;;;;;;;9.17;8.10;;;;;;;;;;6262811;28;20176;-70
2023/07/07 05:04:31;;;;;;;9.77;8.47;;;;;;;;;;6246221;28;20202;-70
2023/07/07 05:07:32;;;;;;;9.77;7.57;;;;;;;;;;6248122;28;20197;-70
2023/07/07 05:10:33;;;;;;;8.87;7.93;;;;;;;;;;6256870;28;20194;-70
2023/07/07 05:13:34;;;;;;;9.03;8.10;;;;;;;;;;6255943;28;20202;-70
2023/07/07 05:16:36;;;;;;;8.77;7.73;;;;;;;;;;6253256;28;20202;-71
2023/07/07 05:19:37;;;;;;;9.40;7.80;;;;;;;;;;6257885;28;20333;-71
2023/07/07 05:22:38;;;;;;;9.80;7.93;;;;;;;;;;6264667;28;20198;-71
2023/07/07 05:25:40;;;;;;;8.50;7.63;;;;;;;;;;6256925;28;20200;-71
2023/07/07 05:28:41;;;;;;;8.50;7.60;;;;;;;;;;6250599;28;20224;-71
2023/07/07 05:31:42;;;;;;;8.90;8.00;;;;;;;;;;6265758;28;20292;-71
2023/07/07 05:34:43;;;;;;;8.17;7.37;;;;;;;;;;6251909;28;20205;-71
2023/07/07 05:37:44;;;;;;;7.40;6.70;;;;;;;;;;6250050;28;20201;-71
2023/07/07 05:40:46;;;;;;;8.23;7.50;;;;;;;;;;6241257;28;20218;-71
2023/07/07 05:43:47;;;;;;;9.43;7.83;;;;;;;;;;6268119;28;20186;-71
2023/07/07 05:46:48;;;;;;;7.80;6.93;;;;;;;;;;6252225;28;20198;-71
2023/07/07 05:49:53;;;;;;;8.47;7.23;;;;;;;;;;6247139;28;20194;-70
2023/07/07 05:52:54;;;;;;;7.83;7.10;;;;;;;;;;6258812;28;20186;-70
2023/07/07 05:56:03;;;;;;;9.00;7.27;;;;;;;;;;6256932;28;20246;-69
2023/07/07 05:59:04;;;;;;;7.40;6.67;;;;;;;;;;6252934;28;20224;-69
2023/07/07 06:02:06;;;;;;;6.53;6.03;;;;;;;;;;6263528;28;20181;-70
2023/07/07 06:05:07;;;;;;;6.60;6.00;;;;;;;;;;6253240;28;20222;-70
2023/07/07 06:08:08;;;;;;;9.73;6.90;;;;;;;;;;6253841;28;20182;-70
2023/07/07 06:11:09;;;;;;;7.03;6.33;;;;;;;;;;6244336;28;20185;-70
2023/07/07 06:14:10;;;;;;;7.27;6.33;;;;;;;;;;6245458;28;20194;-70
2023/07/07 06:17:12;;;;;;;7.57;6.87;;;;;;;;;;6252302;28;20239;-70
2023/07/07 06:20:14;;;;;;;7.57;6.87;;;;;;;;;;6245464;28;20219;-69
2023/07/07 06:23:15;;;;;;;7.73;6.93;;;;;;;;;;6264213;28;20654;-69
2023/07/07 06:26:16;;;;;;;6.80;5.73;;;;;;;;;;6245526;28;20194;-69
2023/07/07 06:29:17;;;;;;;8.57;6.67;;;;;;;;;;6272092;28;20198;-69
2023/07/07 06:32:18;;;;;;;6.53;5.90;;;;;;;;;;6251826;28;20198;-69
2023/07/07 06:35:19;;;;;;;8.53;6.50;;;;;;;;;;6252948;28;20202;-70
2023/07/07 06:38:20;;;;;;;6.93;6.23;;;;;;;;;;6251910;28;20204;-69
2023/07/07 06:41:22;;;;;;;6.90;5.60;;;;;;;;;;6247537;28;20233;-69
2023/07/07 06:44:23;;;;;;;8.10;7.00;;;;;;;;;;6249188;28;20187;-70
2023/07/07 06:47:24;;;;;;;8.30;6.90;;;;;;;;;;6266511;28;20190;-70
2023/07/07 06:50:27;;;;;;;7.57;6.93;;;;;;;;;;6251491;28;20190;-69
2023/07/07 06:53:28;;;;;;;7.17;6.57;;;;;;;;;;6264985;28;20218;-69
2023/07/07 06:56:29;;;;;;;7.27;6.37;;;;;;;;;;6242268;28;20251;-70
2023/07/07 06:59:30;;;;;;;8.83;6.33;;;;;;;;;;6239233;28;20210;-70
2023/07/07 07:02:31;;;;;;;8.30;7.47;;;;;;;;;;6257591;28;20199;-69
2023/07/07 07:05:32;;;;;;;7.93;6.57;;;;;;;;;;6264577;28;20195;-69
2023/07/07 07:08:33;;;;;;;9.67;6.47;;;;;;;;;;6250111;28;20190;-69
2023/07/07 07:11:34;;;;;;;6.87;6.27;;;;;;;;;;6252284;28;20216;-69
2023/07/07 07:14:35;;;;;;;7.50;6.73;;;;;;;;;;6248710;28;20237;-69
2023/07/07 07:17:36;;;;;;;7.50;6.77;;;;;;;;;;6245670;28;20328;-70
2023/07/07 07:20:37;;;;;;;7.60;6.93;;;;;;;;;;6270241;28;20220;-69
2023/07/07 07:23:39;;;;;;;6.90;6.20;;;;;;;;;;6265902;28;20197;-69
2023/07/07 07:26:40;;;;;;;6.33;5.77;;;;;;;;;;6248472;28;20272;-70
2023/07/07 07:29:43;;;;;;;6.83;6.13;;;;;;;;;;6249070;28;20195;-70
2023/07/07 07:32:44;;;;;;;6.90;6.30;;;;;;;;;;6248474;28;20191;-70
2023/07/07 07:35:45;;;;;;;6.50;5.60;;;;;;;;;;6251048;28;20225;-70
2023/07/07 07:38:46;;;;;;;8.97;6.80;;;;;;;;;;6254543;28;20224;-70
2023/07/07 07:41:48;;;;;;;7.80;6.53;;;;;;;;;;6247288;28;20201;-70
2023/07/07 07:44:49;;;;;;;6.53;5.90;;;;;;;;;;6269021;28;20190;-70
2023/07/07 07:47:51;;;;;;;7.57;6.40;;;;;;;;;;6249987;28;20189;-70
2023/07/07 07:50:52;;;;;;;8.13;6.07;;;;;;;;;;6249955;28;20194;-70
2023/07/07 07:53:53;;;;;;;7.27;6.53;;;;;;;;;;6271097;28;20193;-68
2023/07/07 07:56:54;;;;;;;6.97;6.30;;;;;;;;;;6247932;28;20196;-68
2023/07/07 07:59:56;;;;;;;6.67;6.07;;;;;;;;;;6253380;28;20218;-68
2023/07/07 08:02:57;;;;;;;7.63;6.03;;;;;;;;;;6261404;28;20187;-68
2023/07/07 08:05:58;;;;;;;8.03;6.07;;;;;;;;;;6257356;28;20183;-68
2023/07/07 08:08:59;;;;;;;7.07;6.37;;;;;;;;;;6257282;28;20224;-68
2023/07/07 08:12:00;;;;;;;7.53;6.67;;;;;;;;;;6248308;28;20193;-68
2023/07/07 08:15:02;;;;;;;7.10;6.40;;;;;;;;;;6256022;28;20194;-68
2023/07/07 08:18:03;;;;;;;6.10;5.50;;;;;;;;;;6265349;28;20311;-68
2023/07/07 08:21:04;;;;;;;7.57;5.50;;;;;;;;;;6256402;28;20189;-69
2023/07/07 08:24:06;;;;;;;5.37;4.87;;;;;;;;;;6270171;28;20212;-67
2023/07/07 08:27:08;;;;;;;6.17;5.10;;;;;;;;;;6263726;28;20246;-69
2023/07/07 08:30:09;;;;;;;5.20;4.70;;;;;;;;;;6266394;28;20186;-69
2023/07/07 08:33:10;;;;;;;4.90;3.87;;;;;;;;;;6259524;28;20193;-69
2023/07/07 08:36:11;;;;;;;4.97;4.47;;;;;;;;;;6273744;28;20193;-69
2023/07/07 08:39:15;;;;;;;5.00;4.60;;;;;;;;;;6258365;28;20239;-68
2023/07/07 08:42:24;;;;;;;5.37;4.43;;;;;;;;;;6254776;28;20189;-68
2023/07/07 08:45:27;;;;;;;6.53;5.00;;;;;;;;;;6256515;28;20235;-68
2023/07/07 08:48:50;;;;;;;5.70;5.10;;;;;;;;;;6258448;28;20202;-68
2023/07/07 08:51:57;;;;;;;6.03;5.20;;;;;;;;;;6258120;28;20198;-68
2023/07/07 08:55:03;;;;;;;6.50;5.00;;;;;;;;;;6256474;28;20203;-69
2023/07/07 08:58:07;;;;;;;5.90;5.30;;;;;;;;;;6264681;28;20221;-69
2023/07/07 09:01:15;;;;;;;6.63;4.80;;;;;;;;;;6268384;28;20265;-68
2023/07/07 09:04:23;;;;;;;5.73;5.20;;;;;;;;;;6262826;28;20186;-68
2023/07/07 09:07:24;;;;;;;6.53;4.77;;;;;;;;;;6251467;28;20190;-68
2023/07/07 09:10:34;;;;;;;5.10;4.60;;;;;;;;;;6272109;28;20221;-68
2023/07/07 09:13:37;;;;;;;7.23;5.33;;;;;;;;;;6264434;28;20203;-68
2023/07/07 09:16:39;;;;;;;4.93;4.43;;;;;;;;;;6259450;28;20221;-68
2023/07/07 09:19:41;;;;;;;5.83;4.60;;;;;;;;;;6243710;28;20253;-68
2023/07/07 09:22:42;;;;;;;5.03;4.63;;;;;;;;;;6262218;28;20190;-68
2023/07/07 09:25:47;;;;;;;5.57;5.07;;;;;;;;;;6269512;28;20181;-68
2023/07/07 09:28:50;;;;;;;5.50;5.00;;;;;;;;;;6251970;28;20253;-68
2023/07/07 09:31:51;;;;;;;6.70;5.07;;;;;;;;;;6263287;28;20198;-68
2023/07/07 09:34:52;;;;;;;6.83;5.13;;;;;;;;;;6253746;28;20197;-69
2023/07/07 09:38:08;;;;;;;5.33;4.83;;;;;;;;;;6285557;28;20214;-69
2023/07/07 09:41:09;;;;;;;4.60;4.20;;;;;;;;;;6249344;28;20194;-69
2023/07/07 09:44:19;;;;;;;5.10;4.70;;;;;;;;;;6258545;28;20185;-69
2023/07/07 09:47:31;;;;;;;5.83;4.60;;;;;;;;;;6256864;28;20186;-69
2023/07/07 09:50:40;;;;;;;6.53;4.77;;;;;;;;;;6271306;28;20194;-69
2023/07/07 09:53:41;;;;;;;5.37;4.87;;;;;;;;;;6260100;28;20205;-69
2023/07/07 09:56:49;;;;;;;5.83;5.33;;;;;;;;;;6258829;28;20191;-69
2023/07/07 09:59:51;;;;;;;5.40;4.90;;;;;;;;;;6259919;28;20229;-69
2023/07/07 10:02:52;;;;;;;7.43;5.33;;;;;;;;;;6267736;28;20181;-69
2023/07/07 10:05:54;;;;;;;6.27;5.07;;;;;;;;;;6247648;28;20201;-69
2023/07/07 10:08:55;;;;;;;5.77;5.03;;;;;;;;;;6249046;28;20240;-69
2023/07/07 10:11:57;;;;;;;7.07;5.53;;;;;;;;;;6252605;28;20190;-69
2023/07/07 10:14:58;;;;;;;5.73;5.20;;;;;;;;;;6250226;28;20198;-69
2023/07/07 10:18:13;;;;;;;4.97;4.43;;;;;;;;;;6252880;28;20229;-69
2023/07/07 10:21:15;;;;;;;5.17;4.63;;;;;;;;;;6254343;28;20218;-69
2023/07/07 10:24:16;;;;;;;8.00;5.00;;;;;;;;;;6247693;28;20215;-69
2023/07/07 10:27:22;;;;;;;5.27;4.60;;;;;;;;;;6253496;28;20197;-69
2023/07/07 10:30:23;;;;;;;4.80;4.30;;;;;;;;;;6266228;28;20195;-69
2023/07/07 10:33:24;;;;;;;7.70;4.20;;;;;;;;;;6255140;28;20220;-69
2023/07/07 10:36:27;;;;;;;5.17;4.23;;;;;;;;;;6243976;28;20231;-69
2023/07/07 10:39:31;;;;;;;5.00;4.40;;;;;;;;;;6256039;28;20272;-69
2023/07/07 10:42:33;;;;;;;4.67;3.97;;;;;;;;;;6251218;28;20209;-69
2023/07/07 10:45:34;;;;;;;5.57;4.10;;;;;;;;;;6259387;28;20182;-69
2023/07/07 10:48:35;;;;;;;4.90;4.40;;;;;;;;;;6266204;28;20196;-69
2023/07/07 10:51:36;;;;;;;4.43;3.73;;;;;;;;;;6245394;28;20240;-69
2023/07/07 10:54:42;;;;;;;5.20;4.70;;;;;;;;;;6268598;28;20192;-69
2023/07/07 10:57:47;;;;;;;5.53;4.53;;;;;;;;;;6258409;28;20281;-69
2023/07/07 11:01:05;;;;;;;5.80;4.33;;;;;;;;;;6261767;28;20214;-69
2023/07/07 11:04:22;;;;;;;6.27;4.63;;;;;;;;;;6252373;28;20187;-69
2023/07/07 11:07:27;;;;;;;5.03;4.30;;;;;;;;;;6258521;28;20191;-69
2023/07/07 11:10:43;;;;;;;5.07;3.90;;;;;;;;;;6259835;28;20221;-68
2023/07/07 11:13:55;;;;;;;5.77;4.37;;;;;;;;;;6250712;28;20195;-68
2023/07/07 11:17:05;;;;;;;5.20;4.27;;;;;;;;;;6247110;28;20183;-69
2023/07/07 11:20:25;;;;;;;4.53;3.80;;;;;;;;;;6257676;28;20288;-69
2023/07/07 11:23:39;;;;;;;5.03;4.57;;;;;;;;;;6262684;28;20240;-69
2023/07/07 11:27:01;;;;;;;4.60;4.20;;;;;;;;;;6244699;28;20194;-69
2023/07/07 11:30:14;;;;;;;6.23;4.63;;;;;;;;;;6266908;28;20289;-69
2023/07/07 11:33:34;;;;;;;5.13;4.57;;;;;;;;;;6255188;28;20183;-69
2023/07/07 11:36:40;;;;;;;5.23;4.47;;;;;;;;;;6246789;28;20223;-69
2023/07/07 11:40:00;;;;;;;5.77;4.63;;;;;;;;;;6257929;28;20272;-69
2023/07/07 11:43:20;;;;;;;5.70;5.10;;;;;;;;;;6257092;28;20243;-69
2023/07/07 11:46:43;;;;;;;7.70;4.87;;;;;;;;;;6269073;28;20191;-69
2023/07/07 11:49:54;;;;;;;8.87;6.33;;;;;;;;;;6268037;28;20275;-69
2023/07/07 11:53:01;;;;;;;7.90;5.60;;;;;;;;;;6257035;28;20201;-69
2023/07/07 11:56:11;;;;;;;6.30;5.00;;;;;;;;;;6257274;28;20187;-69
2023/07/07 11:59:19;;;;;;;5.90;5.07;;;;;;;;;;6255872;28;20210;-69
2023/07/07 12:02:24;;;;;;;6.73;4.60;;;;;;;;;;6255299;28;20182;-69
2023/07/07 12:05:27;;;;;;;4.97;4.47;;;;;;;;;;6252446;28;20194;-69
2023/07/07 12:08:35;;;;;;;5.27;4.50;;;;;;;;;;6254929;28;20187;-69
2023/07/07 12:11:41;;;;;;;5.77;5.27;;;;;;;;;;6249984;28;20186;-69
2023/07/07 12:26:10;;;;;;;4.90;4.40;;;;;;;;;;6236150;28;20251;-69
2023/07/07 12:29:13;;;;;;;5.20;4.70;;;;;;;;;;6263134;28;20218;-69
2023/07/07 12:32:15;;;;;;;6.17;4.63;;;;;;;;;;6265177;28;20195;-69
2023/07/07 12:35:17;;;;;;;5.47;4.73;;;;;;;;;;6254994;28;20201;-69
2023/07/07 12:38:27;;;;;;;5.40;4.63;;;;;;;;;;6257942;28;20277;-69
2023/07/07 12:41:29;;;;;;;5.67;4.60;;;;;;;;;;6262575;28;20233;-69
2023/07/07 12:44:30;;;;;;;5.03;4.63;;;;;;;;;;6250537;28;20269;-69
2023/07/07 12:47:32;;;;;;;5.13;4.60;;;;;;;;;;6274355;28;20210;-69
2023/07/07 12:50:42;;;;;;;5.03;4.40;;;;;;;;;;6263513;28;20276;-68
2023/07/07 12:53:52;;;;;;;4.97;4.50;;;;;;;;;;6254744;28;20190;-69
2023/07/07 12:57:04;;;;;;;5.27;4.77;;;;;;;;;;6250592;28;20194;-69
2023/07/07 13:00:27;;;;;;;5.17;4.13;;;;;;;;;;6261913;28;20206;-68
2023/07/07 13:03:29;;;;;;;7.33;4.70;;;;;;;;;;6250607;28;20199;-68
2023/07/07 13:06:37;;;;;;;5.33;4.57;;;;;;;;;;6245707;28;20274;-68
2023/07/07 13:09:49;;;;;;;4.53;4.13;;;26.40;62.50;;;;;;6260663;28;20684;-69
2023/07/07 13:12:50;;;;;;;4.37;4.00;;;;;;;;;;6261220;28;20190;-69
2023/07/07 13:15:53;;;;;;;4.60;4.00;;;30.30;51.30;;;;;;6260091;28;20190;-69
2023/07/07 13:18:54;;;;;;;6.40;4.67;;;;;;;;;;6276862;28;20351;-69
2023/07/07 13:21:57;;;;;;;5.97;4.80;;;;;;;;;;6239496;28;20258;-68
2023/07/07 13:25:00;;;;;;;5.13;4.60;;;;;;;;;;6261237;28;20235;-70
2023/07/07 13:28:01;;;;;;;6.57;4.70;;;;;;;;;;6261312;28;20332;-69
2023/07/07 13:31:02;;;;;;;5.20;4.43;;;;;;;;;;6258945;28;20182;-68
2023/07/07 13:34:03;;;;;;;7.37;4.10;;;;;;;;;;6263481;28;20194;-70
2023/07/07 13:37:07;;;;;;;5.70;4.50;;;;;;;;;;6255807;28;20190;-69
2023/07/07 13:40:15;;;;;;;4.83;4.20;;;;;;;;;;6256619;28;20213;-70
2023/07/07 13:43:20;;;;;;;4.77;4.17;;;;;;;;;;6260645;28;20217;-68
2023/07/07 13:46:21;;;;;;;5.10;4.33;;;;;;;;;;6257960;28;20191;-70
2023/07/07 13:49:22;;;;;;;4.40;4.00;;;;;;;;;;6253063;28;20186;-68
2023/07/07 13:52:23;;;;;;;4.43;4.00;;;;;;;;;;6269818;28;20336;-68
2023/07/07 13:55:27;;;;;;;4.80;4.40;;;;;;;;;;6255308;28;20209;-69
2023/07/07 13:58:28;;;;;;;4.83;4.33;;;;;;;;;;6269029;28;20218;-68
2023/07/07 14:01:34;;;;;;;4.80;4.00;;;;;;;;;;6243314;28;20194;-69
2023/07/07 14:04:37;;;;;;;4.60;4.20;;;;;;;;;;6253772;28;20190;-69
2023/07/07 14:07:42;;;;;;;7.63;4.47;;;;;;;;;;6273800;28;20189;-69
2023/07/07 14:10:44;;;;;;;5.53;4.33;;;;;;;;;;6267506;28;20218;-68
2023/07/07 14:13:51;;;;;;;4.70;4.17;;;;;;;;;;6260165;28;20196;-71
2023/07/07 14:17:08;;;;;;;7.00;4.10;;;;;;;;;;6259318;28;20198;-67
2023/07/07 14:20:20;;;;;;;4.40;4.00;;;;;;;;;;6250734;28;20272;-69
2023/07/07 14:23:21;;;;;;;5.30;4.27;;;;;;;;;;6261054;28;20236;-69
2023/07/07 14:26:23;;;;;;;4.53;3.93;;;;;;;;;;6265828;28;20240;-69
2023/07/07 14:29:53;;;;;;;4.43;4.03;;;;;;;;;;6249301;28;20215;-69
2023/07/07 14:32:55;;;;;;;4.63;4.23;;;;;;;;;;6253201;28;20211;-69
2023/07/07 14:35:57;;;;;;;4.30;3.90;;;;;;;;;;6269134;28;20194;-69
2023/07/07 14:39:00;;;;;;;4.40;4.00;;;;;;;;;;6252415;28;20210;-69
2023/07/07 14:42:11;;;;;;;5.40;4.13;;;;;;;;;;6246099;28;20329;-70
2023/07/07 14:45:22;;;;;;;4.20;3.80;;;;;;;;;;6249807;28;20197;-68
2023/07/07 14:48:25;;;;;;;4.33;3.93;;;;;;;;;;6254725;28;20194;-67
2023/07/07 14:51:26;;;;;;;5.10;4.20;;;;;;;;;;6260998;28;20226;-69
2023/07/07 14:54:28;;;;;;;4.40;4.00;;;;;;;;;;6247535;28;20184;-69
2023/07/07 14:57:29;;;;;;;7.20;4.80;;;;;;;;;;6256417;28;20182;-69
2023/07/07 15:00:32;;;;;;;7.17;4.37;;;;;;;;;;6251904;28;20300;-68
2023/07/07 15:03:37;;;;;;;6.47;4.53;;;;;;;;;;6262104;28;20217;-69
2023/07/07 15:06:49;;;;;;;5.00;4.30;;;;;;;;;;6256206;28;20186;-69
2023/07/07 15:09:50;;;;;;;4.70;3.97;;;;;;;;;;6247644;28;20277;-68
2023/07/07 15:12:51;;;;;;;5.50;4.60;;;;;;;;;;6268688;28;20192;-68
2023/07/07 15:15:52;;;;;;;5.83;4.97;;;;;;;;;;6259202;28;20193;-67
2023/07/07 15:18:53;;;;;;;4.87;4.10;;;;;;;;;;6257890;28;20213;-68
2023/07/07 15:21:54;;;;;;;4.60;4.20;;;;;;;;;;6248443;28;20224;-71
2023/07/07 15:24:55;;;;;;;4.80;4.40;;;;;;;;;;6266553;28;20289;-72
2023/07/07 15:27:56;;;;;;;6.27;4.70;;;;;;;;;;6238143;28;20226;-67
2023/07/07 15:30:57;;;;;;;5.60;3.93;;;;;;;;;;6245323;28;20194;-69
2023/07/07 15:33:58;;;;;;;5.17;4.63;;;;;;;;;;6241039;28;20195;-69
2023/07/07 15:36:59;;;;;;;5.27;4.77;;;;;;;;;;6244344;28;20217;-69
2023/07/07 15:40:00;;;;;;;4.10;3.67;;;;;;;;;;6249311;28;20213;-68
2023/07/07 15:43:01;;;;;;;5.10;4.50;;;;;;;;;;6252865;28;20190;-69
2023/07/07 15:46:02;;;;;;;4.77;4.33;;;;;;;;;;6242435;28;20187;-69
2023/07/07 15:49:09;;;;;;;5.60;4.00;;;;;;;;;;6232442;28;20198;-69
2023/07/07 15:52:14;;;;;;;6.03;4.40;;;;;;;;;;6260119;28;20190;-68
2023/07/07 15:55:15;;;;;;;4.57;4.10;;;;;;;;;;6254951;28;20190;-69
2023/07/07 15:58:16;;;;;;;4.60;4.20;;;;;;;;;;6248521;28;20213;-68
2023/07/07 16:01:17;;;;;;;4.97;4.43;;;;;;;;;;6248193;28;20218;-68
2023/07/07 16:04:19;;;;;;;6.77;4.50;;;;;;;;;;6257071;28;20189;-67
2023/07/07 16:07:20;;;;;;;4.40;4.00;;;;;;;;;;6255406;28;20191;-67
2023/07/07 16:10:21;;;;;;;5.20;4.70;;;;;;;;;;6251531;28;20191;-69
2023/07/07 16:13:22;;;;;;;5.33;4.47;;;;;;;;;;6262775;28;20182;-68
2023/07/07 16:16:25;;;;;;;6.03;4.43;;;;;;;;;;6275527;28;20267;-68
2023/07/07 16:19:26;;;;;;;5.57;4.83;;;;;;;;;;6257424;28;20217;-67
2023/07/07 16:22:43;;;;;;;5.73;4.17;;;;;;;;;;6256683;28;20194;-68
2023/07/07 16:25:44;;;;;;;5.20;4.57;;;;;;;;;;6268678;28;20234;-68
2023/07/07 16:28:45;;;;;;;5.07;4.13;;;;;;;;;;6247079;28;20206;-68
2023/07/07 16:31:46;;;;;;;5.97;5.03;;;;;;;;;;6269746;28;20197;-68
2023/07/07 16:34:47;;;;;;;4.97;4.17;;;;;;;;;;6253550;28;20186;-68
2023/07/07 16:37:48;;;;;;;7.03;4.30;;;;;;;;;;6251460;28;20190;-68
2023/07/07 16:40:51;;;;;;;4.93;4.43;;;;;;;;;;6251775;28;20317;-70
2023/07/07 16:43:55;;;;;;;6.50;4.13;;;;;;;;;;6277624;28;20197;-69
2023/07/07 16:46:56;;;;;;;4.97;4.03;;;;;;;;;;6258536;28;20297;-69
2023/07/07 16:49:57;;;;;;;4.80;4.13;;;;;;;;;;6270839;28;20283;-68
2023/07/07 16:52:59;;;;;;;7.37;4.43;;;;;;;;;;6250045;28;20191;-69
2023/07/07 16:56:00;;;;;;;5.07;4.53;;;;;;;;;;6262252;28;20209;-68
2023/07/07 16:59:01;;;;;;;3.93;3.63;;;;;;;;;;6271034;28;20201;-70
2023/07/07 17:02:02;;;;;;;4.60;4.20;;;;;;;;;;6282668;28;20229;-69
2023/07/07 17:05:03;;;;;;;6.47;4.43;;;;;;;;;;6256819;28;20182;-69
2023/07/07 17:08:08;;;;;;;6.00;4.07;;;;;;;;;;6261306;28;20216;-70
2023/07/07 17:11:11;;;;;;;6.57;4.37;;;;;;;;;;6258445;28;20187;-70
2023/07/07 17:14:12;;;;;;;4.37;3.97;;;;;;;;;;6266551;28;20244;-70
2023/07/07 17:17:13;;;;;;;6.77;4.33;;;;;;;;;;6269158;28;20198;-69
2023/07/07 17:20:16;;;;;;;5.33;4.17;;;;;;;;;;6288022;28;20272;-69
2023/07/07 17:23:17;;;;;;;4.67;4.13;;;;;;;;;;6275084;28;20273;-69
2023/07/07 17:26:20;;;;;;;4.70;4.10;;;;;;;;;;6258337;28;20276;-68
2023/07/07 17:29:21;;;;;;;7.33;3.97;;;;;;;;;;6274449;28;20332;-67
2023/07/07 17:32:22;;;;;;;5.47;4.90;;;;;;;;;;6254555;28;20208;-70
2023/07/07 17:35:24;;;;;;;4.60;4.10;;;;;;;;;;6248843;28;20194;-71
2023/07/07 17:38:25;;;;;;;6.70;4.30;;;;;;;;;;6263381;28;20193;-69
2023/07/07 17:41:30;;;;;;;5.47;4.37;;;;;;;;;;6257650;28;20200;-68
2023/07/07 17:44:31;;;;;;;7.10;4.23;;;;;;;;;;6255005;28;20226;-70
2023/07/07 17:47:32;;;;;;;7.70;4.53;;;;;;;;;;6276663;28;20212;-69
2023/07/07 17:50:45;;;;;;;5.60;4.07;;;;;;;;;;6249549;28;20225;-69
2023/07/07 17:53:47;;;;;;;6.53;4.63;;;;;;;;;;6261087;28;20202;-73
2023/07/07 17:56:48;;;;;;;6.23;3.60;;;;;;;;;;6265728;28;20194;-70
2023/07/07 17:59:49;;;;;;;6.87;4.60;;;;;;;;;;6249266;28;20210;-71
2023/07/07 18:02:50;;;;;;;4.67;4.00;;;;;;;;;;6247452;28;20229;-70
2023/07/07 18:05:51;;;;;;;4.80;4.30;;;;;;;;;;6251513;28;20241;-68
2023/07/07 18:08:52;;;;;;;4.43;3.97;;;;;;;;;;6250415;28;20214;-70
2023/07/07 18:11:53;;;;;;;8.90;5.23;;;;;;;;;;6265616;28;20205;-71
2023/07/07 18:14:54;;;;;;;5.97;4.33;;;;;;;;;;6252949;28;20197;-70
2023/07/07 18:17:56;;;;;;;5.67;4.07;;;;;;;;;;6284357;28;20197;-66
2023/07/07 18:20:57;;;;;;;5.53;4.20;;;;;;;;;;6245916;28;20249;-70
2023/07/07 18:23:58;;;;;;;5.97;4.23;;;;;;;;;;6254113;28;20213;-68
2023/07/07 18:26:59;;;;;;;7.13;4.50;;;;;;;;;;6251425;28;20276;-68